createdAt,value
2023-04-06T00:02:19.039Z,5.72
2023-04-06T00:04:46.997Z,5.15
2023-04-06T00:07:14.909Z,5.20
2023-04-06T00:09:44.188Z,5.43
2023-04-06T00:12:12.127Z,5.05
2023-04-06T00:14:41.441Z,4.93
2023-04-06T00:17:09.544Z,4.97
2023-04-06T00:19:37.992Z,4.93
2023-04-06T00:22:05.972Z,4.90
2023-04-06T00:24:33.964Z,5.13
2023-04-06T00:27:03.274Z,4.80
2023-04-06T00:29:31.260Z,5.57
2023-04-06T00:31:59.289Z,4.95
2023-04-06T00:34:27.289Z,4.97
2023-04-06T00:36:55.264Z,4.85
2023-04-06T00:39:23.423Z,4.75
2023-04-06T00:41:53.317Z,4.80
2023-04-06T00:44:22.613Z,4.80
2023-04-06T00:46:50.601Z,4.68
2023-04-06T00:49:19.003Z,4.60
2023-04-06T00:51:47.316Z,4.60
2023-04-06T00:54:16.634Z,4.72
2023-04-06T00:56:45.698Z,4.75
2023-04-06T00:59:13.783Z,4.88
2023-04-06T01:01:43.507Z,4.80
2023-04-06T01:04:26.274Z,4.50
2023-04-06T01:06:55.816Z,4.32
2023-04-06T01:09:29.719Z,4.53
2023-04-06T01:11:58.968Z,4.30
2023-04-06T01:14:31.069Z,4.43
2023-04-06T01:17:02.961Z,4.78
2023-04-06T01:19:33.651Z,4.20
2023-04-06T01:22:02.420Z,4.45
2023-04-06T01:24:34.616Z,4.45
2023-04-06T01:27:09.003Z,4.20
2023-04-06T01:29:51.945Z,4.38
2023-04-06T01:32:40.676Z,4.65
2023-04-06T01:35:10.638Z,4.47
2023-04-06T01:37:44.762Z,4.30
2023-04-06T01:40:17.873Z,4.40
2023-04-06T01:42:50.358Z,4.68
2023-04-06T01:45:26.432Z,4.18
2023-04-06T01:47:58.606Z,4.40
2023-04-06T01:50:28.176Z,4.07
2023-04-06T01:52:56.392Z,4.03
2023-04-06T01:55:27.332Z,4.20
2023-04-06T01:58:13.877Z,4.32
2023-04-06T02:00:42.486Z,4.10
2023-04-06T02:03:11.282Z,4.25
2023-04-06T02:05:40.462Z,3.88
2023-04-06T02:08:32.938Z,4.20
2023-04-06T02:11:02.327Z,4.20
2023-04-06T02:13:35.449Z,4.28
2023-04-06T02:16:03.934Z,4.18
2023-04-06T02:18:32.636Z,3.75
2023-04-06T02:21:00.599Z,4.05
2023-04-06T02:23:28.829Z,4.05
2023-04-06T02:25:58.729Z,4.03
2023-04-06T02:28:28.179Z,4.03
2023-04-06T02:30:56.116Z,3.67
2023-04-06T02:33:28.219Z,3.80
2023-04-06T02:35:56.424Z,4.22
2023-04-06T02:38:24.719Z,3.78
2023-04-06T02:40:53.919Z,4.15
2023-04-06T02:43:25.696Z,3.70
2023-04-06T02:46:01.574Z,3.95
2023-04-06T02:48:30.999Z,3.90
2023-04-06T02:50:59.546Z,3.80
2023-04-06T02:53:28.552Z,3.78
2023-04-06T02:55:57.011Z,3.80
2023-04-06T02:58:30.591Z,3.42
2023-04-06T03:00:59.333Z,3.75
2023-04-06T03:03:28.729Z,3.83
2023-04-06T03:05:59.526Z,3.80
2023-04-06T03:08:30.779Z,3.70
2023-04-06T03:10:59.356Z,3.70
2023-04-06T03:13:35.381Z,3.80
2023-04-06T03:16:03.522Z,3.80
2023-04-06T03:18:33.862Z,4.10
2023-04-06T03:21:02.112Z,3.72
2023-04-06T03:23:38.608Z,3.83
2023-04-06T03:26:08.125Z,3.60
2023-04-06T03:28:36.105Z,3.47
2023-04-06T03:31:06.724Z,3.33
2023-04-06T03:33:54.882Z,3.45
2023-04-06T03:36:34.110Z,3.42
2023-04-06T03:39:04.112Z,3.42
2023-04-06T03:41:35.291Z,3.10
2023-04-06T03:44:12.815Z,3.72
2023-04-06T03:46:40.855Z,3.88
2023-04-06T03:49:10.777Z,3.17
2023-04-06T03:51:39.633Z,3.58
2023-04-06T03:54:07.631Z,3.50
2023-04-06T03:56:35.577Z,3.60
2023-04-06T03:59:03.806Z,3.78
2023-04-06T04:01:31.781Z,3.47
2023-04-06T04:03:59.866Z,3.55
2023-04-06T04:06:29.303Z,3.50
2023-04-06T04:08:57.607Z,3.70
2023-04-06T04:11:25.675Z,3.80
2023-04-06T04:13:59.227Z,3.63
2023-04-06T04:16:27.277Z,3.42
2023-04-06T04:18:55.398Z,3.58
2023-04-06T04:21:24.812Z,3.45
2023-04-06T04:23:54.482Z,3.65
2023-04-06T04:26:22.411Z,3.70
2023-04-06T04:28:50.412Z,3.30
2023-04-06T04:31:19.226Z,3.40
2023-04-06T04:33:51.104Z,3.40
2023-04-06T04:36:26.754Z,3.55
2023-04-06T04:38:57.826Z,3.33
2023-04-06T04:41:26.576Z,3.40
2023-04-06T04:43:55.241Z,3.28
2023-04-06T04:46:26.044Z,3.83
2023-04-06T04:48:54.721Z,3.30
2023-04-06T04:51:22.683Z,5.45
2023-04-06T04:54:08.857Z,8.57
2023-04-06T04:56:36.822Z,6.80
2023-04-06T04:59:14.595Z,7.30
2023-04-06T05:01:55.399Z,7.35
2023-04-06T05:04:30.398Z,5.93
2023-04-06T05:07:06.192Z,5.65
2023-04-06T05:09:36.503Z,5.60
2023-04-06T05:12:05.179Z,5.72
2023-04-06T05:14:38.520Z,5.30
2023-04-06T05:17:13.513Z,5.18
2023-04-06T05:19:41.645Z,5.53
2023-04-06T05:22:10.428Z,5.43
2023-04-06T05:24:43.165Z,5.30
2023-04-06T05:27:11.796Z,5.55
2023-04-06T05:29:40.068Z,4.97
2023-04-06T05:32:08.582Z,4.95
2023-04-06T05:34:37.682Z,4.88
2023-04-06T05:37:06.741Z,5.03
2023-04-06T05:39:34.709Z,4.40
2023-04-06T05:42:06.653Z,4.80
2023-04-06T05:44:54.087Z,4.15
2023-04-06T05:47:22.581Z,4.40
2023-04-06T05:49:57.433Z,4.18
2023-04-06T05:52:33.400Z,5.03
2023-04-06T05:55:01.615Z,4.40
2023-04-06T05:57:31.648Z,4.13
2023-04-06T05:59:59.669Z,4.72
2023-04-06T06:02:40.954Z,4.30
2023-04-06T06:05:11.779Z,3.72
2023-04-06T06:07:42.118Z,4.25
2023-04-06T06:10:11.311Z,4.05
2023-04-06T06:12:40.871Z,4.28
2023-04-06T06:15:09.915Z,4.40
2023-04-06T06:17:42.297Z,4.03
2023-04-06T06:20:11.153Z,4.10
2023-04-06T06:22:41.074Z,4.05
2023-04-06T06:25:14.210Z,3.72
2023-04-06T06:27:44.127Z,4.10
2023-04-06T06:30:12.512Z,3.85
2023-04-06T06:32:43.295Z,3.70
2023-04-06T06:35:11.310Z,3.75
2023-04-06T06:37:39.886Z,3.78
2023-04-06T06:40:10.780Z,4.18
2023-04-06T06:42:38.952Z,4.10
2023-04-06T06:45:16.755Z,3.70
2023-04-06T06:47:44.736Z,3.90
2023-04-06T06:50:13.184Z,3.42
2023-04-06T06:52:43.646Z,3.60
2023-04-06T06:55:12.710Z,3.20
2023-04-06T06:57:40.675Z,3.83
2023-04-06T07:00:12.774Z,3.50
2023-04-06T07:02:43.204Z,3.17
2023-04-06T07:05:26.177Z,3.80
2023-04-06T07:07:57.452Z,3.50
2023-04-06T07:10:25.691Z,3.33
2023-04-06T07:12:53.720Z,3.20
2023-04-06T07:15:21.829Z,3.40
2023-04-06T07:17:53.337Z,3.17
2023-04-06T07:20:21.403Z,3.30
2023-04-06T07:22:49.539Z,2.97
2023-04-06T07:25:17.645Z,3.28
2023-04-06T07:27:45.672Z,3.08
2023-04-06T07:30:14.140Z,3.00
2023-04-06T07:32:42.289Z,2.97
2023-04-06T07:35:12.106Z,3.05
2023-04-06T07:37:40.283Z,3.33
2023-04-06T07:40:09.961Z,3.17
2023-04-06T07:42:39.320Z,2.90
2023-04-06T07:45:09.402Z,2.92
2023-04-06T07:47:37.532Z,2.90
2023-04-06T07:50:06.627Z,3.30
2023-04-06T07:52:38.198Z,3.00
2023-04-06T07:55:07.147Z,2.88
2023-04-06T07:57:35.143Z,3.08
2023-04-06T08:00:04.581Z,3.05
2023-04-06T08:02:40.388Z,3.58
2023-04-06T08:05:09.118Z,11.70
2023-04-06T08:07:38.598Z,11.32
2023-04-06T08:10:06.988Z,11.38
2023-04-06T08:12:35.207Z,15.18
2023-04-06T08:15:04.689Z,12.93
2023-04-06T08:17:34.970Z,14.55
2023-04-06T08:20:04.359Z,13.73
2023-04-06T08:22:32.423Z,12.98
2023-04-06T08:25:01.704Z,11.00
2023-04-06T08:27:29.678Z,10.65
2023-04-06T08:29:57.679Z,11.20
2023-04-06T08:32:25.691Z,10.73
2023-04-06T08:34:55.825Z,10.40
2023-04-06T08:37:23.812Z,10.68
2023-04-06T08:39:52.770Z,10.38
2023-04-06T08:42:23.304Z,9.70
2023-04-06T08:44:52.290Z,10.18
2023-04-06T08:47:22.386Z,10.32
2023-04-06T08:49:52.694Z,9.35
2023-04-06T08:52:20.857Z,9.15
2023-04-06T08:54:48.983Z,10.38
2023-04-06T08:57:16.965Z,9.15
2023-04-06T08:59:46.239Z,9.10
2023-04-06T09:02:16.619Z,8.93
2023-04-06T09:04:44.637Z,8.57
2023-04-06T09:07:12.589Z,8.23
2023-04-06T09:09:44.366Z,8.63
2023-04-06T09:12:13.364Z,8.50
2023-04-06T09:14:41.811Z,8.13
2023-04-06T09:17:11.122Z,9.13
2023-04-06T09:19:47.676Z,7.78
2023-04-06T09:22:15.734Z,8.05
2023-04-06T09:24:44.694Z,7.22
2023-04-06T09:27:12.734Z,7.25
2023-04-06T09:29:40.844Z,7.03
2023-04-06T09:32:11.286Z,7.43
2023-04-06T09:34:40.735Z,6.80
2023-04-06T09:37:15.985Z,6.15
2023-04-06T09:39:43.935Z,5.57
2023-04-06T09:42:12.182Z,5.57
2023-04-06T09:44:40.302Z,5.47
2023-04-06T09:47:09.385Z,5.75
2023-04-06T09:49:37.392Z,5.82
2023-04-06T09:52:07.112Z,5.80
2023-04-06T09:54:35.081Z,4.97
2023-04-06T09:57:06.416Z,5.47
2023-04-06T09:59:40.191Z,4.88
2023-04-06T10:02:08.298Z,4.85
2023-04-06T10:04:39.350Z,5.65
2023-04-06T10:07:08.708Z,4.65
2023-04-06T10:09:37.423Z,4.97
2023-04-06T10:12:06.534Z,4.93
2023-04-06T10:14:36.072Z,4.85
2023-04-06T10:17:04.740Z,4.50
2023-04-06T10:19:38.337Z,4.20
2023-04-06T10:22:06.270Z,4.60
2023-04-06T10:24:35.905Z,5.28
2023-04-06T10:27:04.386Z,9.95
2023-04-06T10:29:44.446Z,8.88
2023-04-06T10:32:12.455Z,8.20
2023-04-06T10:34:40.574Z,9.93
2023-04-06T10:37:19.948Z,11.60
2023-04-06T10:39:49.932Z,9.25
2023-04-06T10:42:17.989Z,9.23
2023-04-06T10:44:46.570Z,8.82
2023-04-06T10:47:18.807Z,9.05
2023-04-06T10:49:46.746Z,10.10
2023-04-06T10:52:14.830Z,9.45
2023-04-06T10:54:44.203Z,8.93
2023-04-06T10:57:14.414Z,9.48
2023-04-06T10:59:44.833Z,8.13
2023-04-06T11:02:21.935Z,9.10
2023-04-06T11:04:57.817Z,8.13
2023-04-06T11:07:26.633Z,8.40
2023-04-06T11:10:12.627Z,8.60
2023-04-06T11:12:44.045Z,8.63
2023-04-06T11:15:12.674Z,8.00
2023-04-06T11:17:40.846Z,9.07
2023-04-06T11:20:12.410Z,7.90
2023-04-06T11:22:50.651Z,7.05
2023-04-06T11:25:18.993Z,7.55
2023-04-06T11:27:48.653Z,7.05
2023-04-06T11:30:16.923Z,7.18
2023-04-06T11:32:45.478Z,7.25
2023-04-06T11:35:14.758Z,6.90
2023-04-06T11:37:42.724Z,7.03
2023-04-06T11:40:11.920Z,6.95
2023-04-06T11:42:39.899Z,6.90
2023-04-06T11:45:10.330Z,6.63
2023-04-06T11:47:38.842Z,6.68
2023-04-06T11:50:10.432Z,6.18
2023-04-06T11:52:39.025Z,6.07
2023-04-06T11:55:14.273Z,6.10
2023-04-06T11:57:42.254Z,5.82
2023-04-06T12:00:12.559Z,5.38
2023-04-06T12:02:40.815Z,5.82
2023-04-06T12:05:09.654Z,6.18
2023-04-06T12:07:37.652Z,5.05
2023-04-06T12:10:06.603Z,4.85
2023-04-06T12:12:34.501Z,4.50
2023-04-06T12:15:02.516Z,4.93
2023-04-06T12:17:31.856Z,4.07
2023-04-06T12:20:05.273Z,4.70
2023-04-06T12:22:33.896Z,4.10
2023-04-06T12:25:01.846Z,4.90
2023-04-06T12:27:29.795Z,4.47
2023-04-06T12:29:57.770Z,4.60
2023-04-06T12:32:25.927Z,4.07
2023-04-06T12:34:55.870Z,4.50
2023-04-06T12:37:23.797Z,4.72
2023-04-06T12:39:51.745Z,4.10
2023-04-06T12:42:19.710Z,4.57
2023-04-06T12:44:48.184Z,3.80
2023-04-06T12:47:16.232Z,4.10
2023-04-06T12:49:44.724Z,3.72
2023-04-06T12:52:14.124Z,4.45
2023-04-06T12:54:43.475Z,4.10
2023-04-06T12:57:11.610Z,4.00
2023-04-06T12:59:39.622Z,4.32
2023-04-06T13:02:07.643Z,4.00
2023-04-06T13:04:35.686Z,3.70
2023-04-06T13:07:03.662Z,3.70
2023-04-06T13:09:32.988Z,3.65
2023-04-06T13:12:01.974Z,3.70
2023-04-06T13:14:30.099Z,3.97
2023-04-06T13:16:58.449Z,3.63
2023-04-06T13:19:26.495Z,3.70
2023-04-06T13:21:54.484Z,3.50
2023-04-06T13:24:22.825Z,3.65
2023-04-06T13:26:52.223Z,3.30
2023-04-06T13:29:20.238Z,3.28
2023-04-06T13:31:48.546Z,3.63
2023-04-06T13:34:16.966Z,3.65
2023-04-06T13:36:44.990Z,3.53
2023-04-06T13:39:12.939Z,3.13
2023-04-06T13:41:41.132Z,3.65
2023-04-06T13:44:10.699Z,3.10
2023-04-06T13:46:38.718Z,3.30
2023-04-06T13:49:07.168Z,3.30
2023-04-06T13:51:35.494Z,2.92
2023-04-06T13:54:03.388Z,3.08
2023-04-06T13:56:31.390Z,3.20
2023-04-06T13:58:59.837Z,3.45
2023-04-06T14:01:29.157Z,3.30
2023-04-06T14:03:57.342Z,3.00
2023-04-06T14:06:31.187Z,3.30
2023-04-06T14:09:00.386Z,2.70
2023-04-06T14:11:28.444Z,3.28
2023-04-06T14:13:58.285Z,2.97
2023-04-06T14:16:27.387Z,2.88
2023-04-06T14:18:58.592Z,2.78
2023-04-06T14:21:27.425Z,3.00
2023-04-06T14:23:57.991Z,2.80
2023-04-06T14:26:27.787Z,2.92
2023-04-06T14:28:55.673Z,3.25
2023-04-06T14:31:23.706Z,2.75
2023-04-06T14:33:51.604Z,2.78
2023-04-06T14:36:20.906Z,3.00
2023-04-06T14:38:48.836Z,2.78
2023-04-06T14:41:19.574Z,2.83
2023-04-06T14:43:48.270Z,2.65
2023-04-06T14:46:17.089Z,2.63
2023-04-06T14:48:45.049Z,2.35
2023-04-06T14:51:12.919Z,2.50
2023-04-06T14:53:42.208Z,2.40
2023-04-06T14:56:10.233Z,2.60
2023-04-06T14:58:38.213Z,2.90
2023-04-06T15:01:06.908Z,2.50
2023-04-06T15:03:34.951Z,2.38
2023-04-06T15:06:02.886Z,2.60
2023-04-06T15:08:30.971Z,2.70
2023-04-06T15:11:01.324Z,2.42
2023-04-06T15:13:29.261Z,2.58
2023-04-06T15:15:57.547Z,2.15
2023-04-06T15:18:26.257Z,2.50
2023-04-06T15:20:54.154Z,2.47
2023-04-06T15:23:22.094Z,2.20
2023-04-06T15:25:50.062Z,2.42
2023-04-06T15:28:19.333Z,2.53
2023-04-06T15:30:47.272Z,2.53
2023-04-06T15:33:15.222Z,2.28
2023-04-06T15:35:43.670Z,2.38
2023-04-06T15:38:11.698Z,2.20
2023-04-06T15:40:44.633Z,2.20
2023-04-06T15:43:12.676Z,2.30
2023-04-06T15:45:42.203Z,2.25
2023-04-06T15:48:10.258Z,2.47
2023-04-06T15:50:38.152Z,2.10
2023-04-06T15:53:06.075Z,2.10
2023-04-06T15:55:34.252Z,2.40
2023-04-06T15:58:02.154Z,2.28
2023-04-06T16:00:30.426Z,2.28
2023-04-06T16:02:59.791Z,2.42
2023-04-06T16:05:31.748Z,2.15
2023-04-06T16:08:02.223Z,2.30
2023-04-06T16:10:30.202Z,2.10
2023-04-06T16:12:58.064Z,2.28
2023-04-06T16:15:26.098Z,2.38
2023-04-06T16:17:54.089Z,2.25
2023-04-06T16:20:23.454Z,2.75
2023-04-06T16:22:51.324Z,2.30
2023-04-06T16:25:19.237Z,2.33
2023-04-06T16:27:47.107Z,2.35
2023-04-06T16:30:15.584Z,2.63
2023-04-06T16:32:45.713Z,2.40
2023-04-06T16:35:13.765Z,2.17
2023-04-06T16:37:42.992Z,2.67
2023-04-06T16:40:11.464Z,2.58
2023-04-06T16:42:39.410Z,2.45
2023-04-06T16:45:08.509Z,2.50
2023-04-06T16:47:36.816Z,2.45
2023-04-06T16:50:06.473Z,2.60
2023-04-06T16:52:34.666Z,2.30
2023-04-06T16:55:04.012Z,2.58
2023-04-06T16:57:31.946Z,2.30
2023-04-06T16:59:59.932Z,2.42
2023-04-06T17:02:27.941Z,2.35
2023-04-06T17:04:55.922Z,2.47
2023-04-06T17:07:26.485Z,2.60
2023-04-06T17:09:54.378Z,2.20
2023-04-06T17:12:23.660Z,2.33
2023-04-06T17:14:51.807Z,2.45
2023-04-06T17:17:19.755Z,2.58
2023-04-06T17:19:47.777Z,2.20
2023-04-06T17:22:20.569Z,2.20
2023-04-06T17:24:49.354Z,2.40
2023-04-06T17:27:17.278Z,2.30
2023-04-06T17:29:46.560Z,2.33
2023-04-06T17:32:14.467Z,2.40
2023-04-06T17:34:42.383Z,2.35
2023-04-06T17:37:10.601Z,2.60
2023-04-06T17:39:38.505Z,2.20
2023-04-06T17:42:06.439Z,2.08
2023-04-06T17:44:34.350Z,2.47
2023-04-06T17:47:03.595Z,2.40
2023-04-06T17:49:32.024Z,2.30
2023-04-06T17:51:59.905Z,2.72
2023-04-06T17:54:27.810Z,2.50
2023-04-06T17:56:55.768Z,2.70
2023-04-06T17:59:23.672Z,2.80
2023-04-06T18:01:51.771Z,2.63
2023-04-06T18:04:21.194Z,2.65
2023-04-06T18:06:49.329Z,3.05
2023-04-06T18:09:17.215Z,2.60
2023-04-06T18:11:45.409Z,2.90
2023-04-06T18:14:15.528Z,2.85
2023-04-06T18:16:43.481Z,2.65
2023-04-06T18:19:11.396Z,2.72
2023-04-06T18:21:40.719Z,2.80
2023-04-06T18:24:12.370Z,2.50
2023-04-06T18:26:43.078Z,2.80
2023-04-06T18:29:11.096Z,2.85
2023-04-06T18:31:38.992Z,2.95
2023-04-06T18:34:06.879Z,2.78
2023-04-06T18:36:34.821Z,2.50
2023-04-06T18:39:04.491Z,2.78
2023-04-06T18:41:32.383Z,2.85
2023-04-06T18:44:00.378Z,2.83
2023-04-06T18:46:28.276Z,2.67
2023-04-06T18:48:56.162Z,2.92
2023-04-06T18:51:24.207Z,2.70
2023-04-06T18:53:52.121Z,2.60
2023-04-06T18:56:21.372Z,2.80
2023-04-06T18:58:49.347Z,2.78
2023-04-06T19:01:24.218Z,2.97
2023-04-06T19:03:52.894Z,2.55
2023-04-06T19:06:21.450Z,2.70
2023-04-06T19:08:49.493Z,2.60
2023-04-06T19:11:17.700Z,2.90
2023-04-06T19:13:50.109Z,2.80
2023-04-06T19:16:18.497Z,2.80
2023-04-06T19:18:46.418Z,2.67
2023-04-06T19:21:17.810Z,2.60
2023-04-06T19:23:45.914Z,2.80
2023-04-06T19:26:14.256Z,2.72
2023-04-06T19:28:42.314Z,2.78
2023-04-06T19:31:12.008Z,2.55
2023-04-06T19:33:40.420Z,2.67
2023-04-06T19:36:08.618Z,2.72
2023-04-06T19:38:36.780Z,2.80
2023-04-06T19:41:04.814Z,2.53
2023-04-06T19:43:32.674Z,2.90
2023-04-06T19:46:00.734Z,2.67
2023-04-06T19:48:30.055Z,2.90
2023-04-06T19:50:57.945Z,2.90
2023-04-06T19:53:25.913Z,2.50
2023-04-06T19:55:53.867Z,2.60
2023-04-06T19:58:22.201Z,2.72
2023-04-06T20:00:50.153Z,2.78
2023-04-06T20:03:20.348Z,2.88
2023-04-06T20:05:49.660Z,2.85
2023-04-06T20:08:17.580Z,2.60
2023-04-06T20:10:45.503Z,2.70
2023-04-06T20:13:13.490Z,2.60
2023-04-06T20:15:41.443Z,2.50
2023-04-06T20:18:09.442Z,2.95
2023-04-06T20:20:37.409Z,2.70
2023-04-06T20:23:06.667Z,2.80
2023-04-06T20:25:34.543Z,3.03
2023-04-06T20:28:02.532Z,2.92
2023-04-06T20:30:30.537Z,3.00
2023-04-06T20:32:58.512Z,3.00
2023-04-06T20:35:26.622Z,2.67
2023-04-06T20:37:54.549Z,2.78
2023-04-06T20:40:23.905Z,2.60
2023-04-06T20:42:52.190Z,2.97
2023-04-06T20:45:20.391Z,2.90
2023-04-06T20:47:48.408Z,2.70
2023-04-06T20:50:16.361Z,3.22
2023-04-06T20:52:44.271Z,3.15
2023-04-06T20:55:12.250Z,3.00
2023-04-06T20:57:41.471Z,3.03
2023-04-06T21:00:10.382Z,3.17
2023-04-06T21:02:38.529Z,2.90
2023-04-06T21:05:07.537Z,3.45
2023-04-06T21:07:35.440Z,2.90
2023-04-06T21:10:03.331Z,3.10
2023-04-06T21:12:31.466Z,3.10
2023-04-06T21:15:00.948Z,3.30
2023-04-06T21:17:28.806Z,3.00
2023-04-06T21:19:56.819Z,3.38
2023-04-06T21:22:24.782Z,2.88
2023-04-06T21:24:52.669Z,3.38
2023-04-06T21:27:20.651Z,3.20
2023-04-06T21:29:48.720Z,3.00
2023-04-06T21:32:17.918Z,3.20
2023-04-06T21:34:46.587Z,3.00
2023-04-06T21:37:15.936Z,3.25
2023-04-06T21:39:45.123Z,3.20
2023-04-06T21:42:13.027Z,3.03
2023-04-06T21:44:40.942Z,2.88
2023-04-06T21:47:08.884Z,3.00
2023-04-06T21:49:38.257Z,3.05
2023-04-06T21:52:06.634Z,3.33
2023-04-06T21:54:34.718Z,3.10
2023-04-06T21:57:02.952Z,2.88
2023-04-06T21:59:30.831Z,3.20
2023-04-06T22:01:58.796Z,3.08
2023-04-06T22:04:27.000Z,2.97
2023-04-06T22:06:56.628Z,2.90
2023-04-06T22:09:24.520Z,3.22
2023-04-06T22:11:52.410Z,3.20
2023-04-06T22:14:20.463Z,2.78
2023-04-06T22:16:48.703Z,2.88
2023-04-06T22:19:16.686Z,3.33
2023-04-06T22:21:45.352Z,2.72
2023-04-06T22:24:14.540Z,2.85
2023-04-06T22:26:42.412Z,2.88
2023-04-06T22:29:10.328Z,2.90
2023-04-06T22:31:38.249Z,3.10
2023-04-06T22:34:06.137Z,2.95
2023-04-06T22:36:34.554Z,3.22
2023-04-06T22:39:02.462Z,3.05
2023-04-06T22:41:32.706Z,3.28
2023-04-06T22:44:00.644Z,2.97
2023-04-06T22:46:28.519Z,3.00
2023-04-06T22:48:56.393Z,2.90
2023-04-06T22:51:24.292Z,3.15
2023-04-06T22:53:52.584Z,3.13
2023-04-06T22:56:21.432Z,2.97
2023-04-06T22:58:51.306Z,3.17
2023-04-06T23:01:19.339Z,3.15
2023-04-06T23:03:47.428Z,2.97
2023-04-06T23:06:15.556Z,3.05
2023-04-06T23:08:43.800Z,3.05
2023-04-06T23:11:11.724Z,2.83
2023-04-06T23:13:39.662Z,2.83
2023-04-06T23:16:09.723Z,2.95
2023-04-06T23:18:37.580Z,2.95
2023-04-06T23:21:07.576Z,2.97
2023-04-06T23:23:35.494Z,2.80
2023-04-06T23:26:03.402Z,3.03
2023-04-06T23:28:31.383Z,3.22
2023-04-06T23:30:59.313Z,2.80
2023-04-06T23:33:29.071Z,2.92
2023-04-06T23:35:57.030Z,3.20
2023-04-06T23:38:24.929Z,2.70
2023-04-06T23:40:52.807Z,2.97
2023-04-06T23:43:20.895Z,3.05
2023-04-06T23:45:48.749Z,2.70
2023-04-06T23:48:16.877Z,2.78
2023-04-06T23:50:46.410Z,2.78
2023-04-06T23:53:14.276Z,2.90
2023-04-06T23:55:42.163Z,2.75
2023-04-06T23:58:10.049Z,2.65
